St. John — WDI4730 — position and weather

sailwx.info

Track history (hours):
 
Tides and Currents Weather Stations Pressure Air Temp Water Temp Dewpoint Dewpoint Depression Visibility Wind Speed Wind Dir Waves Ship Positions

St. John

Owner: Marquette Transportation Co. Gulf-Inland, LLC, Jefferson, LA. More information available from US FCC via Universal Licensing System and Coast Guard Vessel Documentation Center.

Last reported at 2017-Nov-19 23:26 UTC. Time now 2017-Nov-20 00:10 UTC.
Position N 29°56' W 092°57'.

Length 24 m; draft 2.7 m.

Type: Towing. MMSI: 367701370.

Date/timePositionNaut miles runAvg speedWind from/ knotsBaromVisibWave heightAir tempDewpointWater temp
2017-Nov-19 23:26N 29°56' W 092°57'3 5.9
2017-Nov-19 23:00N 29°56' W 093°00'4 7.2
2017-Nov-19 22:31N 29°56' W 093°04'4 7.2
2017-Nov-19 22:00N 29°56' W 093°08'3 6.4
2017-Nov-19 21:31N 29°58' W 093°11'3 6.8
2017-Nov-19 21:00N 30°01' W 093°14'3 5.3
2017-Nov-19 20:30N 30°03' W 093°16'2 4.9
2017-Nov-19 20:00N 30°05' W 093°17'1 1.9
2017-Nov-19 19:30N 30°05' W 093°18'1 1.1
2017-Nov-19 19:00N 30°06' W 093°18'0 0.0
2017-Nov-19 18:30N 30°06' W 093°18'0 0.0
2017-Nov-19 18:00N 30°06' W 093°18'0 0.0
2017-Nov-19 17:30N 30°06' W 093°18'0 0.1
2017-Nov-19 17:00N 30°06' W 093°18'0 0.0
2017-Nov-19 16:30N 30°06' W 093°18'0 0.0
2017-Nov-19 16:00N 30°06' W 093°18'0 0.0
2017-Nov-19 15:31N 30°06' W 093°18'0 0.0
2017-Nov-19 15:00N 30°06' W 093°18'0 0.0
2017-Nov-19 14:30N 30°06' W 093°18'0 0.0
2017-Nov-19 14:00N 30°06' W 093°18'1 2.9
2017-Nov-19 13:30N 30°05' W 093°20'0 0.1
2017-Nov-19 13:01N 30°05' W 093°20'0 0.0
2017-Nov-19 12:30N 30°05' W 093°20'0 0.0
2017-Nov-19 12:01N 30°05' W 093°20'0 0.0
2017-Nov-19 11:31N 30°05' W 093°20'0 0.0
2017-Nov-19 11:00N 30°05' W 093°20'0 0.0
2017-Nov-19 10:31N 30°05' W 093°20'0 0.0
2017-Nov-19 10:01N 30°05' W 093°20'0 0.0
2017-Nov-19 09:31N 30°05' W 093°20'0 0.0
2017-Nov-19 09:01N 30°05' W 093°20'0 0.0
2017-Nov-19 08:31N 30°05' W 093°20'0 0.0
2017-Nov-19 08:01N 30°05' W 093°20'0 0.0
2017-Nov-19 07:31N 30°05' W 093°20'0 0.0
2017-Nov-19 07:01N 30°05' W 093°20'0 0.0
2017-Nov-19 06:31N 30°05' W 093°20'0 0.3
2017-Nov-19 06:00N 30°05' W 093°20'0 0.2
2017-Nov-19 05:31N 30°05' W 093°20'1 2.2
2017-Nov-19 05:01N 30°04' W 093°21'4 7.2
2017-Nov-19 04:30N 30°04' W 093°25'4 8.0
2017-Nov-19 04:01N 30°04' W 093°29'4 8.0
2017-Nov-19 03:30N 30°04' W 093°34'76 5.6
2017-Nov-18 13:59N 29°29' W 094°52'5 9.7
2017-Nov-18 13:30N 29°33' W 094°55'5 9.2
2017-Nov-18 13:00N 29°37' W 094°57'87 2.7
2017-Nov-17 05:21N 30°04' W 093°22'49 3.7
2017-Nov-16 16:19N 29°54' W 092°27'2 5.2
2017-Nov-16 15:58N 29°53' W 092°25'2 4.8
2017-Nov-16 15:30N 29°52' W 092°23'2 4.7
2017-Nov-16 15:00N 29°51' W 092°21'2 4.9
2017-Nov-16 14:30N 29°50' W 092°18'2 5.0
2017-Nov-16 14:00N 29°48' W 092°16'3 5.3
2017-Nov-16 13:30N 29°47' W 092°13'1 1.2
2017-Nov-16 13:00N 29°47' W 092°12'1 1.9
2017-Nov-16 12:30N 29°47' W 092°11'0 0.1
2017-Nov-16 12:00N 29°47' W 092°11'0 0.0
2017-Nov-16 11:30N 29°47' W 092°11'0 0.0
2017-Nov-16 11:00N 29°47' W 092°11'0 0.0
2017-Nov-16 10:30N 29°47' W 092°11'0 0.0
2017-Nov-16 10:00N 29°47' W 092°11'0 0.0
2017-Nov-16 09:30N 29°47' W 092°11'0 0.0
2017-Nov-16 09:00N 29°47' W 092°11'0 0.0
2017-Nov-16 08:30N 29°47' W 092°11'0 0.0
2017-Nov-16 08:00N 29°47' W 092°11'0 0.0
2017-Nov-16 07:30N 29°47' W 092°11'0 0.0
2017-Nov-16 07:00N 29°47' W 092°11'1 2.0
2017-Nov-16 06:30N 29°47' W 092°10'2 4.2
2017-Nov-16 06:00N 29°47' W 092°08'2 3.6
2017-Nov-16 05:30N 29°48' W 092°06'2 4.9
2017-Nov-16 05:00N 29°49' W 092°03'2 4.7
2017-Nov-16 04:30N 29°50' W 092°01'2 4.5
2017-Nov-16 04:00N 29°50' W 091°58'2 4.1
2017-Nov-16 03:30N 29°51' W 091°56'2 3.1
2017-Nov-16 03:00N 29°52' W 091°56'1 1.7
2017-Nov-16 02:30N 29°53' W 091°56'1 2.0
2017-Nov-16 02:00N 29°53' W 091°55'0 0.9
2017-Nov-16 01:30N 29°53' W 091°55'1 1.2
2017-Nov-16 01:00N 29°53' W 091°56'0 0.1
2017-Nov-16 00:30N 29°53' W 091°56'0 0.0
2017-Nov-16 00:00N 29°53' W 091°56'1 2.2
2017-Nov-15 23:30N 29°54' W 091°55'1 2.1
2017-Nov-15 22:58N 29°53' W 091°56'0 0.0
2017-Nov-15 22:27N 29°53' W 091°56'0 0.1
2017-Nov-15 21:47N 29°53' W 091°56'0 1.1
2017-Nov-15 21:29N 29°53' W 091°56'2 3.5
2017-Nov-15 20:52N 29°51' W 091°56'46 4.1
2017-Nov-15 09:34N 29°38' W 091°05'6 4.4
2017-Nov-15 08:12N 29°36' W 090°58'1 5.3
2017-Nov-15 08:00N 29°35' W 090°58'3 5.3
2017-Nov-15 07:30N 29°33' W 090°55'3 5.3
2017-Nov-15 06:59N 29°32' W 090°52'3 5.3
2017-Nov-15 06:30N 29°32' W 090°49'3 5.3
2017-Nov-15 06:00N 29°32' W 090°46'2 4.9
2017-Nov-15 05:30N 29°34' W 090°44'2 4.0
2017-Nov-15 05:00N 29°35' W 090°43'2 3.2
2017-Nov-15 04:30N 29°37' W 090°42'2 4.5
2017-Nov-15 04:00N 29°36' W 090°39'2 4.8
2017-Nov-15 03:30N 29°35' W 090°37'2 4.4
2017-Nov-15 03:00N 29°34' W 090°35'2 4.7
2017-Nov-15 02:30N 29°34' W 090°32'3 4.9
2017-Nov-15 01:53N 29°34' W 090°29'2 4.8
2017-Nov-15 01:29N 29°33' W 090°26'  
2017-Nov-12 09:47N 29°34' W 090°23'1 3.3
2017-Nov-12 09:23N 29°33' W 090°25'2 4.5
2017-Nov-12 08:59N 29°33' W 090°27'2 4.4
2017-Nov-12 08:28N 29°34' W 090°29'2 4.4
2017-Nov-12 08:00N 29°34' W 090°32'2 4.5
2017-Nov-12 07:30N 29°34' W 090°34'2 4.0
2017-Nov-12 07:00N 29°35' W 090°36'2 4.3
2017-Nov-12 06:30N 29°35' W 090°39'2 3.4
2017-Nov-12 06:00N 29°36' W 090°40'2 3.5
2017-Nov-12 05:30N 29°37' W 090°42'2 4.1
2017-Nov-12 05:00N 29°35' W 090°43'1 2.8
2017-Nov-12 04:30N 29°34' W 090°44'1 2.5
2017-Nov-12 04:00N 29°33' W 090°45'2 4.0
2017-Nov-12 03:30N 29°32' W 090°47'3 5.3
2017-Nov-12 03:00N 29°32' W 090°51'3 5.3
2017-Nov-12 02:26N 29°33' W 090°54'55 1.6
2017-Nov-10 16:01N 29°51' W 091°54'0 4.9
2017-Nov-10 16:00N 29°51' W 091°54'3 4.9
2017-Nov-10 15:27N 29°50' W 091°57'4 5.1
2017-Nov-10 14:35N 29°49' W 092°02'0 5.0
2017-Nov-10 14:30N 29°49' W 092°03'3 5.1
2017-Nov-10 14:00N 29°48' W 092°05'3 5.2
2017-Nov-10 13:30N 29°47' W 092°08'2 4.5
2017-Nov-10 13:00N 29°47' W 092°11'1 2.9
2017-Nov-10 12:30N 29°47' W 092°12'1 2.4
2017-Nov-10 12:00N 29°48' W 092°14'1 1.8
2017-Nov-10 11:30N 29°48' W 092°15'2 4.3
2017-Nov-10 11:00N 29°49' W 092°17'2 3.8
2017-Nov-10 10:30N 29°50' W 092°18'2 4.0
2017-Nov-10 10:00N 29°51' W 092°21'2 3.7
2017-Nov-10 09:28N 29°52' W 092°22'2 4.0
2017-Nov-10 08:58N 29°53' W 092°24'2 4.4
2017-Nov-10 08:30N 29°53' W 092°27'27 4.3
2017-Nov-10 02:11N 29°56' W 092°58'1 4.2
2017-Nov-10 02:00N 29°56' W 092°59'2 4.1
2017-Nov-10 01:30N 29°56' W 093°01'2 4.1
2017-Nov-10 01:00N 29°56' W 093°04'2 4.0
2017-Nov-10 00:30N 29°56' W 093°06'2 3.3
2017-Nov-10 00:00N 29°56' W 093°08'1 2.6
2017-Nov-09 23:30N 29°56' W 093°09'  
Track history (hours):
 
Tides and Currents Weather Stations Pressure Air Temp Water Temp Dewpoint Dewpoint Depression Visibility Wind Speed Wind Dir Waves Ship Positions

St. John

Owner: Marquette Transportation Co. Gulf-Inland, LLC, Jefferson, LA. More information available from US FCC via Universal Licensing System and Coast Guard Vessel Documentation Center.

Last reported at 2017-Nov-19 23:26 UTC. Time now 2017-Nov-20 00:10 UTC.
Position N 29°56' W 092°57'.

Length 24 m; draft 2.7 m.

Type: Towing. MMSI: 367701370.

Date/timePositionNaut miles runAvg speedWind from/ knotsBaromVisibWave heightAir tempDewpointWater temp
2017-Nov-19 23:26N 29°56' W 092°57'3 5.9
2017-Nov-19 23:00N 29°56' W 093°00'4 7.2
2017-Nov-19 22:31N 29°56' W 093°04'4 7.2
2017-Nov-19 22:00N 29°56' W 093°08'3 6.4
2017-Nov-19 21:31N 29°58' W 093°11'3 6.8
2017-Nov-19 21:00N 30°01' W 093°14'3 5.3
2017-Nov-19 20:30N 30°03' W 093°16'2 4.9
2017-Nov-19 20:00N 30°05' W 093°17'1 1.9
2017-Nov-19 19:30N 30°05' W 093°18'1 1.1
2017-Nov-19 19:00N 30°06' W 093°18'0 0.0
2017-Nov-19 18:30N 30°06' W 093°18'0 0.0
2017-Nov-19 18:00N 30°06' W 093°18'0 0.0
2017-Nov-19 17:30N 30°06' W 093°18'0 0.1
2017-Nov-19 17:00N 30°06' W 093°18'0 0.0
2017-Nov-19 16:30N 30°06' W 093°18'0 0.0
2017-Nov-19 16:00N 30°06' W 093°18'0 0.0
2017-Nov-19 15:31N 30°06' W 093°18'0 0.0
2017-Nov-19 15:00N 30°06' W 093°18'0 0.0
2017-Nov-19 14:30N 30°06' W 093°18'0 0.0
2017-Nov-19 14:00N 30°06' W 093°18'1 2.9
2017-Nov-19 13:30N 30°05' W 093°20'0 0.1
2017-Nov-19 13:01N 30°05' W 093°20'0 0.0
2017-Nov-19 12:30N 30°05' W 093°20'0 0.0
2017-Nov-19 12:01N 30°05' W 093°20'0 0.0
2017-Nov-19 11:31N 30°05' W 093°20'0 0.0
2017-Nov-19 11:00N 30°05' W 093°20'0 0.0
2017-Nov-19 10:31N 30°05' W 093°20'0 0.0
2017-Nov-19 10:01N 30°05' W 093°20'0 0.0
2017-Nov-19 09:31N 30°05' W 093°20'0 0.0
2017-Nov-19 09:01N 30°05' W 093°20'0 0.0
2017-Nov-19 08:31N 30°05' W 093°20'0 0.0
2017-Nov-19 08:01N 30°05' W 093°20'0 0.0
2017-Nov-19 07:31N 30°05' W 093°20'0 0.0
2017-Nov-19 07:01N 30°05' W 093°20'0 0.0
2017-Nov-19 06:31N 30°05' W 093°20'0 0.3
2017-Nov-19 06:00N 30°05' W 093°20'0 0.2
2017-Nov-19 05:31N 30°05' W 093°20'1 2.2
2017-Nov-19 05:01N 30°04' W 093°21'4 7.2
2017-Nov-19 04:30N 30°04' W 093°25'4 8.0
2017-Nov-19 04:01N 30°04' W 093°29'4 8.0
2017-Nov-19 03:30N 30°04' W 093°34'76 5.6
2017-Nov-18 13:59N 29°29' W 094°52'5 9.7
2017-Nov-18 13:30N 29°33' W 094°55'5 9.2
2017-Nov-18 13:00N 29°37' W 094°57'87 2.7
2017-Nov-17 05:21N 30°04' W 093°22'49 3.7
2017-Nov-16 16:19N 29°54' W 092°27'2 5.2
2017-Nov-16 15:58N 29°53' W 092°25'2 4.8
2017-Nov-16 15:30N 29°52' W 092°23'2 4.7
2017-Nov-16 15:00N 29°51' W 092°21'2 4.9
2017-Nov-16 14:30N 29°50' W 092°18'2 5.0
2017-Nov-16 14:00N 29°48' W 092°16'3 5.3
2017-Nov-16 13:30N 29°47' W 092°13'1 1.2
2017-Nov-16 13:00N 29°47' W 092°12'1 1.9
2017-Nov-16 12:30N 29°47' W 092°11'0 0.1
2017-Nov-16 12:00N 29°47' W 092°11'0 0.0
2017-Nov-16 11:30N 29°47' W 092°11'0 0.0
2017-Nov-16 11:00N 29°47' W 092°11'0 0.0
2017-Nov-16 10:30N 29°47' W 092°11'0 0.0
2017-Nov-16 10:00N 29°47' W 092°11'0 0.0
2017-Nov-16 09:30N 29°47' W 092°11'0 0.0
2017-Nov-16 09:00N 29°47' W 092°11'0 0.0
2017-Nov-16 08:30N 29°47' W 092°11'0 0.0
2017-Nov-16 08:00N 29°47' W 092°11'0 0.0
2017-Nov-16 07:30N 29°47' W 092°11'0 0.0
2017-Nov-16 07:00N 29°47' W 092°11'1 2.0
2017-Nov-16 06:30N 29°47' W 092°10'2 4.2
2017-Nov-16 06:00N 29°47' W 092°08'2 3.6
2017-Nov-16 05:30N 29°48' W 092°06'2 4.9
2017-Nov-16 05:00N 29°49' W 092°03'2 4.7
2017-Nov-16 04:30N 29°50' W 092°01'2 4.5
2017-Nov-16 04:00N 29°50' W 091°58'2 4.1
2017-Nov-16 03:30N 29°51' W 091°56'2 3.1
2017-Nov-16 03:00N 29°52' W 091°56'1 1.7
2017-Nov-16 02:30N 29°53' W 091°56'1 2.0
2017-Nov-16 02:00N 29°53' W 091°55'0 0.9
2017-Nov-16 01:30N 29°53' W 091°55'1 1.2
2017-Nov-16 01:00N 29°53' W 091°56'0 0.1
2017-Nov-16 00:30N 29°53' W 091°56'0 0.0
2017-Nov-16 00:00N 29°53' W 091°56'1 2.2
2017-Nov-15 23:30N 29°54' W 091°55'1 2.1
2017-Nov-15 22:58N 29°53' W 091°56'0 0.0
2017-Nov-15 22:27N 29°53' W 091°56'0 0.1
2017-Nov-15 21:47N 29°53' W 091°56'0 1.1
2017-Nov-15 21:29N 29°53' W 091°56'2 3.5
2017-Nov-15 20:52N 29°51' W 091°56'46 4.1
2017-Nov-15 09:34N 29°38' W 091°05'6 4.4
2017-Nov-15 08:12N 29°36' W 090°58'1 5.3
2017-Nov-15 08:00N 29°35' W 090°58'3 5.3
2017-Nov-15 07:30N 29°33' W 090°55'3 5.3
2017-Nov-15 06:59N 29°32' W 090°52'3 5.3
2017-Nov-15 06:30N 29°32' W 090°49'3 5.3
2017-Nov-15 06:00N 29°32' W 090°46'2 4.9
2017-Nov-15 05:30N 29°34' W 090°44'2 4.0
2017-Nov-15 05:00N 29°35' W 090°43'2 3.2
2017-Nov-15 04:30N 29°37' W 090°42'2 4.5
2017-Nov-15 04:00N 29°36' W 090°39'2 4.8
2017-Nov-15 03:30N 29°35' W 090°37'2 4.4
2017-Nov-15 03:00N 29°34' W 090°35'2 4.7
2017-Nov-15 02:30N 29°34' W 090°32'3 4.9
2017-Nov-15 01:53N 29°34' W 090°29'2 4.8
2017-Nov-15 01:29N 29°33' W 090°26'  
2017-Nov-12 09:47N 29°34' W 090°23'1 3.3
2017-Nov-12 09:23N 29°33' W 090°25'2 4.5
2017-Nov-12 08:59N 29°33' W 090°27'2 4.4
2017-Nov-12 08:28N 29°34' W 090°29'2 4.4
2017-Nov-12 08:00N 29°34' W 090°32'2 4.5
2017-Nov-12 07:30N 29°34' W 090°34'2 4.0
2017-Nov-12 07:00N 29°35' W 090°36'2 4.3
2017-Nov-12 06:30N 29°35' W 090°39'2 3.4
2017-Nov-12 06:00N 29°36' W 090°40'2 3.5
2017-Nov-12 05:30N 29°37' W 090°42'2 4.1
2017-Nov-12 05:00N 29°35' W 090°43'1 2.8
2017-Nov-12 04:30N 29°34' W 090°44'1 2.5
2017-Nov-12 04:00N 29°33' W 090°45'2 4.0
2017-Nov-12 03:30N 29°32' W 090°47'3 5.3
2017-Nov-12 03:00N 29°32' W 090°51'3 5.3
2017-Nov-12 02:26N 29°33' W 090°54'55 1.6
2017-Nov-10 16:01N 29°51' W 091°54'0 4.9
2017-Nov-10 16:00N 29°51' W 091°54'3 4.9
2017-Nov-10 15:27N 29°50' W 091°57'4 5.1
2017-Nov-10 14:35N 29°49' W 092°02'0 5.0
2017-Nov-10 14:30N 29°49' W 092°03'3 5.1
2017-Nov-10 14:00N 29°48' W 092°05'3 5.2
2017-Nov-10 13:30N 29°47' W 092°08'2 4.5
2017-Nov-10 13:00N 29°47' W 092°11'1 2.9
2017-Nov-10 12:30N 29°47' W 092°12'1 2.4
2017-Nov-10 12:00N 29°48' W 092°14'1 1.8
2017-Nov-10 11:30N 29°48' W 092°15'2 4.3
2017-Nov-10 11:00N 29°49' W 092°17'2 3.8
2017-Nov-10 10:30N 29°50' W 092°18'2 4.0
2017-Nov-10 10:00N 29°51' W 092°21'2 3.7
2017-Nov-10 09:28N 29°52' W 092°22'2 4.0
2017-Nov-10 08:58N 29°53' W 092°24'2 4.4
2017-Nov-10 08:30N 29°53' W 092°27'27 4.3
2017-Nov-10 02:11N 29°56' W 092°58'1 4.2
2017-Nov-10 02:00N 29°56' W 092°59'2 4.1
2017-Nov-10 01:30N 29°56' W 093°01'2 4.1
2017-Nov-10 01:00N 29°56' W 093°04'2 4.0
2017-Nov-10 00:30N 29°56' W 093°06'2 3.3
2017-Nov-10 00:00N 29°56' W 093°08'1 2.6
2017-Nov-09 23:30N 29°56' W 093°09'  

Dump ship's entire track history